Grandeur Of The Seas — C6SE3 — position and weather

sailwx.info

Track history (hours):
 
Tides and Currents Weather Stations Pressure Air Temp Water Temp Dewpoint Dewpoint Depression Visibility Wind Speed Wind Dir Waves Ship Positions

Grandeur Of The Seas

Operator: Royal Caribbean Cruises Ltd

Last reported at 2015-Aug-01 10:00 UTC. Time now 2015-Aug-01 13:54 UTC.
Position N 36°18' W 074°24'.

Type: Passenger vessel. MMSI: 311315000.

Wind from 240 at 8 knots

Waves 0.5 meters (2 feet), 3 second period

Barometer 1013.0 mb
Air temperature 26.0 ° C
Visibility: greater than 10.8 NM
Dewpoint 26.0 ° C
Water temperature 29.0 ° C

Date/timePositionNaut miles runAvg speedWind from/ knotsBaromVisibWave heightAir tempDewpointWater temp
2015-Aug-01 10:00N 36°18' W 074°24'12815.0 240 / 81013.010.8 0.526.026.029.0
2015-Aug-01 01:29N 37°54' W 076°09'5619.1
2015-Jul-31 22:32N 38°49' W 076°25'1616.6
2015-Jul-31 21:33N 39°06' W 076°24'1211.9
2015-Jul-31 20:33N 39°15' W 076°33'2 2.3
2015-Jul-31 19:33N 39°16' W 076°36'0 0.0
2015-Jul-31 18:33N 39°16' W 076°36'0 0.0
2015-Jul-31 17:33N 39°16' W 076°36'0 0.0
2015-Jul-31 16:33N 39°16' W 076°36'0 0.0
2015-Jul-31 15:33N 39°16' W 076°36'0 0.0
2015-Jul-31 14:33N 39°16' W 076°36'0 0.0
2015-Jul-31 13:33N 39°16' W 076°36'0 0.0
2015-Jul-31 12:33N 39°16' W 076°36'0 0.0
2015-Jul-31 11:33N 39°16' W 076°36'1 1.0
2015-Jul-31 10:34N 39°15' W 076°35'7 6.9
2015-Jul-31 09:33N 39°11' W 076°28'1010.3
2015-Jul-31 08:33N 39°02' W 076°23'1414.4
2015-Jul-31 07:33N 38°47' W 076°25'1515.4
2015-Jul-31 06:33N 38°32' W 076°25'1616.2
2015-Jul-31 05:33N 38°17' W 076°17'1615.8
2015-Jul-31 04:33N 38°02' W 076°12'7513.9
2015-Jul-30 23:12N 36°50' W 075°46'914.3
2015-Jul-30 22:33N 36°42' W 075°41'63614.0
2015-Jul-29 01:14N 26°27' W 078°50'1115.8
2015-Jul-29 00:33N 26°20' W 078°41'1615.6
2015-Jul-28 23:33N 26°10' W 078°28'  
2015-Jul-25 00:33N 37°59' W 076°12'5719.0
2015-Jul-24 21:33N 38°55' W 076°24'1515.1
2015-Jul-24 20:33N 39°10' W 076°26'10 9.5
2015-Jul-24 19:33N 39°16' W 076°36'0 0.3
2015-Jul-24 18:33N 39°16' W 076°36'0 0.0
2015-Jul-24 17:33N 39°16' W 076°36'0 0.0
2015-Jul-24 16:33N 39°16' W 076°36'0 0.0
2015-Jul-24 15:33N 39°16' W 076°36'0 0.0
2015-Jul-24 14:33N 39°16' W 076°36'0 0.0
2015-Jul-24 13:33N 39°16' W 076°36'0 0.0
2015-Jul-24 12:33N 39°16' W 076°36'0 0.0
2015-Jul-24 11:33N 39°16' W 076°36'1 0.8
2015-Jul-24 10:33N 39°15' W 076°35'10 9.7
2015-Jul-24 09:33N 39°10' W 076°25'1514.9
2015-Jul-24 08:33N 38°55' W 076°24'6015.0
2015-Jul-24 04:33N 37°56' W 076°09'25111.6
2015-Jul-23 07:00N 35°24' W 072°00'5513.6 360 / 101013.610.8 26.019.430.0
2015-Jul-23 03:00N 35°00' W 071°00'   010 / 131012.2 26.926.4
Track history (hours):
 
Tides and Currents Weather Stations Pressure Air Temp Water Temp Dewpoint Dewpoint Depression Visibility Wind Speed Wind Dir Waves Ship Positions

Grandeur Of The Seas

Operator: Royal Caribbean Cruises Ltd

Last reported at 2015-Aug-01 10:00 UTC. Time now 2015-Aug-01 13:54 UTC.
Position N 36°18' W 074°24'.

Type: Passenger vessel. MMSI: 311315000.

Wind from 240 at 8 knots

Waves 0.5 meters (2 feet), 3 second period

Barometer 1013.0 mb
Air temperature 26.0 ° C
Visibility: greater than 10.8 NM
Dewpoint 26.0 ° C
Water temperature 29.0 ° C

Date/timePositionNaut miles runAvg speedWind from/ knotsBaromVisibWave heightAir tempDewpointWater temp
2015-Aug-01 10:00N 36°18' W 074°24'12815.0 240 / 81013.010.8 0.526.026.029.0
2015-Aug-01 01:29N 37°54' W 076°09'5619.1
2015-Jul-31 22:32N 38°49' W 076°25'1616.6
2015-Jul-31 21:33N 39°06' W 076°24'1211.9
2015-Jul-31 20:33N 39°15' W 076°33'2 2.3
2015-Jul-31 19:33N 39°16' W 076°36'0 0.0
2015-Jul-31 18:33N 39°16' W 076°36'0 0.0
2015-Jul-31 17:33N 39°16' W 076°36'0 0.0
2015-Jul-31 16:33N 39°16' W 076°36'0 0.0
2015-Jul-31 15:33N 39°16' W 076°36'0 0.0
2015-Jul-31 14:33N 39°16' W 076°36'0 0.0
2015-Jul-31 13:33N 39°16' W 076°36'0 0.0
2015-Jul-31 12:33N 39°16' W 076°36'0 0.0
2015-Jul-31 11:33N 39°16' W 076°36'1 1.0
2015-Jul-31 10:34N 39°15' W 076°35'7 6.9
2015-Jul-31 09:33N 39°11' W 076°28'1010.3
2015-Jul-31 08:33N 39°02' W 076°23'1414.4
2015-Jul-31 07:33N 38°47' W 076°25'1515.4
2015-Jul-31 06:33N 38°32' W 076°25'1616.2
2015-Jul-31 05:33N 38°17' W 076°17'1615.8
2015-Jul-31 04:33N 38°02' W 076°12'7513.9
2015-Jul-30 23:12N 36°50' W 075°46'914.3
2015-Jul-30 22:33N 36°42' W 075°41'63614.0
2015-Jul-29 01:14N 26°27' W 078°50'1115.8
2015-Jul-29 00:33N 26°20' W 078°41'1615.6
2015-Jul-28 23:33N 26°10' W 078°28'  
2015-Jul-25 00:33N 37°59' W 076°12'5719.0
2015-Jul-24 21:33N 38°55' W 076°24'1515.1
2015-Jul-24 20:33N 39°10' W 076°26'10 9.5
2015-Jul-24 19:33N 39°16' W 076°36'0 0.3
2015-Jul-24 18:33N 39°16' W 076°36'0 0.0
2015-Jul-24 17:33N 39°16' W 076°36'0 0.0
2015-Jul-24 16:33N 39°16' W 076°36'0 0.0
2015-Jul-24 15:33N 39°16' W 076°36'0 0.0
2015-Jul-24 14:33N 39°16' W 076°36'0 0.0
2015-Jul-24 13:33N 39°16' W 076°36'0 0.0
2015-Jul-24 12:33N 39°16' W 076°36'0 0.0
2015-Jul-24 11:33N 39°16' W 076°36'1 0.8
2015-Jul-24 10:33N 39°15' W 076°35'10 9.7
2015-Jul-24 09:33N 39°10' W 076°25'1514.9
2015-Jul-24 08:33N 38°55' W 076°24'6015.0
2015-Jul-24 04:33N 37°56' W 076°09'25111.6
2015-Jul-23 07:00N 35°24' W 072°00'5513.6 360 / 101013.610.8 26.019.430.0
2015-Jul-23 03:00N 35°00' W 071°00'   010 / 131012.2 26.926.4

Dump ship's entire track history